Time;durP1;ratioP1;P1;durP2;ratioP2;P2;SDS_P1;SDS_P2;PMS_P1;PMS_P2;Temp;Humidity;BMP_temperature;BMP_pressure;BME280_temperature;BME280_humidity;BME280_pressure;Samples;Min_cycle;Max_cycle;Signal;HPM_P1;HPM_P2
2021/04/07 00:00:41;;;;;;;3.60;2.23;;;;;;;1.04;75.37;100117.44;5052783;28;20347;-66
2021/04/07 00:03:08;;;;;;;2.20;1.50;;;;;;;1.02;75.17;100125.38;5052237;28;20205;-66
2021/04/07 00:05:36;;;;;;;4.17;2.17;;;;;;;1.02;75.32;100119.25;5053337;28;20208;-66
2021/04/07 00:08:03;;;;;;;4.17;1.97;;;;;;;1.00;75.30;100114.06;5052805;28;20228;-66
2021/04/07 00:10:33;;;;;;;3.23;1.60;;;;;;;1.01;75.42;100117.53;5052968;28;20226;-66
2021/04/07 00:12:59;;;;;;;4.07;1.90;;;;;;;1.01;75.47;100122.78;5054407;28;20202;-66
2021/04/07 00:15:26;;;;;;;4.13;1.50;;;;;;;1.00;75.41;100123.69;5062762;28;20208;-66
2021/04/07 00:17:53;;;;;;;4.53;2.10;;;;;;;0.98;75.31;100118.50;5055228;28;20573;-67
2021/04/07 00:20:21;;;;;;;4.50;2.63;;;;;;;0.96;75.61;100108.97;5063374;28;20207;-66
2021/04/07 00:22:48;;;;;;;4.27;1.83;;;;;;;0.94;75.58;100116.88;5054027;28;20579;-66
2021/04/07 00:25:14;;;;;;;4.57;1.70;;;;;;;0.92;75.66;100121.31;5056328;28;20206;-67
2021/04/07 00:27:44;;;;;;;4.20;2.07;;;;;;;0.91;75.71;100126.59;5052642;28;20240;-66
2021/04/07 00:30:11;;;;;;;4.07;2.00;;;;;;;0.89;75.67;100120.56;5056114;28;20227;-66
2021/04/07 00:32:38;;;;;;;5.47;2.17;;;;;;;0.88;75.80;100132.81;5060280;28;20671;-67
2021/04/07 00:35:05;;;;;;;2.73;1.83;;;;;;;0.87;75.72;100127.63;5054471;28;20212;-67
2021/04/07 00:37:31;;;;;;;2.67;1.60;;;;;;;0.86;75.84;100136.41;5059418;28;20216;-67
2021/04/07 00:39:57;;;;;;;5.17;1.90;;;;;;;0.86;76.09;100139.03;5051686;28;20248;-67
2021/04/07 00:42:23;;;;;;;3.47;1.90;;;;;;;0.85;75.81;100134.69;5053033;28;20296;-65
2021/04/07 00:44:51;;;;;;;6.37;2.33;;;;;;;0.85;76.04;100142.53;5052621;28;20204;-67
2021/04/07 00:47:20;;;;;;;3.40;2.07;;;;;;;0.85;76.17;100137.31;5052731;28;20225;-67
2021/04/07 00:49:46;;;;;;;3.60;2.07;;;;;;;0.85;75.93;100143.41;5052505;28;20221;-67
2021/04/07 00:52:12;;;;;;;3.73;1.90;;;;;;;0.85;76.30;100150.41;5052157;28;20566;-67
2021/04/07 00:54:38;;;;;;;8.27;1.83;;;;;;;0.85;76.19;100147.78;5050588;28;20655;-66
2021/04/07 00:57:04;;;;;;;5.77;2.03;;;;;;;0.84;76.04;100146.94;5052126;28;20232;-66
2021/04/07 00:59:31;;;;;;;2.50;1.53;;;;;;;0.84;75.95;100152.16;5052248;28;20225;-66
2021/04/07 01:01:57;;;;;;;5.20;2.10;;;;;;;0.84;76.09;100157.41;5051638;28;20247;-67
2021/04/07 01:04:25;;;;;;;3.13;2.17;;;;;;;0.84;76.31;100154.78;5051897;28;20251;-67
2021/04/07 01:06:52;;;;;;;6.87;2.63;;;;;;;0.83;76.33;100149.59;5052025;28;20239;-66
2021/04/07 01:09:19;;;;;;;2.67;1.63;;;;;;;0.84;76.36;100156.56;5051338;28;20229;-66
2021/04/07 01:11:45;;;;;;;3.47;2.20;;;;;;;0.84;76.36;100151.31;5051295;28;20206;-68
2021/04/07 01:14:11;;;;;;;3.70;2.07;;;;;;;0.82;76.39;100142.63;5051481;28;20281;-67
2021/04/07 01:16:38;;;;;;;3.87;2.03;;;;;;;0.82;76.41;100147.88;5050872;28;20234;-67
2021/04/07 01:19:07;;;;;;;4.70;2.10;;;;;;;0.82;76.39;100158.38;5051750;28;20218;-67
2021/04/07 01:21:33;;;;;;;5.43;1.90;;;;;;;0.80;76.35;100157.56;5049791;28;20210;-67
2021/04/07 01:24:00;;;;;;;3.93;2.30;;;;;;;0.76;76.29;100163.78;5051441;28;20204;-67
2021/04/07 01:26:26;;;;;;;5.37;2.13;;;;;;;0.76;76.28;100163.78;5051135;28;20744;-67
2021/04/07 01:28:52;;;;;;;4.00;2.30;;;;;;;0.75;76.32;100164.69;5051028;28;20275;-67
2021/04/07 01:31:18;;;;;;;6.20;2.20;;;;;;;0.72;76.44;100170.06;5051215;28;20221;-67
2021/04/07 01:33:44;;;;;;;5.33;2.37;;;;;;;0.72;76.38;100164.81;5050431;28;20197;-67
2021/04/07 01:36:11;;;;;;;3.70;2.03;;;;;;;0.71;76.33;100165.72;5051612;28;20209;-67
2021/04/07 01:38:37;;;;;;;5.37;2.40;;;;;;;0.69;76.38;100169.25;5050724;28;20241;-67
2021/04/07 01:41:05;;;;;;;6.47;2.70;;;;;;;0.68;76.33;100171.91;5051579;28;20670;-67
2021/04/07 01:43:32;;;;;;;8.03;2.13;;;;;;;0.68;76.41;100177.16;5047087;28;20639;-68
2021/04/07 01:45:59;;;;;;;4.80;1.80;;;;;;;0.67;76.31;100175.44;5050771;28;20201;-68
2021/04/07 01:48:25;;;;;;;4.30;2.10;;;;;;;0.67;76.35;100184.16;5050117;28;20232;-67
2021/04/07 01:50:52;;;;;;;4.23;2.00;;;;;;;0.66;76.38;100185.06;5050714;28;20209;-67
2021/04/07 01:53:20;;;;;;;6.37;2.67;;;;;;;0.68;76.33;100192.88;5050461;28;20209;-67
2021/04/07 01:55:46;;;;;;;7.07;2.30;;;;;;;0.68;76.52;100187.63;5051177;28;20213;-67
2021/04/07 01:58:14;;;;;;;5.27;2.23;;;;;;;0.70;76.80;100191.06;5049826;28;20283;-66
2021/04/07 02:00:40;;;;;;;6.37;2.90;;;;;;;0.69;76.41;100192.81;5050223;28;20221;-67
2021/04/07 02:03:07;;;;;;;4.37;1.90;;;;;;;0.68;76.65;100191.09;5050256;28;20209;-67
2021/04/07 02:05:33;;;;;;;7.23;3.03;;;;;;;0.67;76.40;100192.00;5050864;28;20674;-67
2021/04/07 02:07:59;;;;;;;5.37;2.50;;;;;;;0.67;76.25;100192.00;5050155;28;20226;-67
2021/04/07 02:10:26;;;;;;;10.07;2.50;;;;;;;0.65;76.63;100193.81;5051206;28;20201;-66
2021/04/07 02:12:53;;;;;;;8.03;3.00;;;;;;;0.61;76.46;100197.44;5050608;28;20205;-67
2021/04/07 02:15:22;;;;;;;5.83;2.37;;;;;;;0.59;76.61;100201.84;5050805;28;20252;-67
2021/04/07 02:17:48;;;;;;;5.50;2.67;;;;;;;0.58;76.37;100191.41;5050642;28;20206;-66
2021/04/07 02:20:14;;;;;;;9.53;3.30;;;;;;;0.55;76.32;100194.97;5050124;28;20210;-68
2021/04/07 02:22:41;;;;;;;7.17;3.00;;;;;;;0.55;76.49;100197.59;5048032;28;20206;-67
2021/04/07 02:25:08;;;;;;;11.93;3.53;;;;;;;0.52;76.33;100192.47;5045511;28;20201;-67
2021/04/07 02:27:35;;;;;;;11.27;3.60;;;;;;;0.50;76.38;100189.03;5050277;28;20283;-66
2021/04/07 02:30:04;;;;;;;11.40;4.20;;;;;;;0.49;76.36;100189.06;5049310;28;20226;-67
2021/04/07 02:32:31;;;;;;;9.50;3.63;;;;;;;0.46;76.24;100186.53;5050230;28;20202;-67
2021/04/07 02:34:57;;;;;;;11.87;4.10;;;;;;;0.44;76.22;100185.72;5050870;28;20553;-67
2021/04/07 02:37:23;;;;;;;11.20;3.27;;;;;;;0.40;76.40;100184.94;5049795;28;20259;-66
2021/04/07 02:39:49;;;;;;;10.03;3.93;;;;;;;0.38;76.38;100180.66;5081955;22;20233;-67
2021/04/07 02:42:22;;;;;;;10.27;3.60;;;;;;;0.34;76.13;100178.16;5069156;28;20201;-66
2021/04/07 02:44:48;;;;;;;8.37;3.57;;;;;;;0.32;76.47;100190.44;5066250;28;20204;-67
2021/04/07 02:47:15;;;;;;;7.53;2.70;;;;;;;0.28;75.88;100183.56;5069341;28;20482;-66
2021/04/07 02:49:42;;;;;;;7.23;2.47;;;;;;;0.27;75.89;100187.06;5065926;28;20226;-66
2021/04/07 02:52:08;;;;;;;8.87;2.77;;;;;;;0.25;76.07;100186.25;5048529;28;20251;-65
2021/04/07 02:54:34;;;;;;;6.13;2.53;;;;;;;0.24;75.91;100195.03;5046471;28;20297;-65
2021/04/07 02:57:00;;;;;;;9.50;2.63;;;;;;;0.22;76.22;100198.56;5045293;28;20201;-66
2021/04/07 02:59:26;;;;;;;5.37;2.20;;;;;;;0.21;76.17;100191.63;5042271;28;20229;-66
2021/04/07 03:01:52;;;;;;;8.07;2.90;;;;;;;0.18;76.09;100194.34;5044984;28;20550;-66
2021/04/07 03:04:18;;;;;;;8.97;2.73;;;;;;;0.17;75.86;100193.50;5049275;28;20205;-66
2021/04/07 03:06:45;;;;;;;10.13;3.47;;;;;;;0.16;76.24;100194.41;5045268;28;20205;-66
2021/04/07 03:09:11;;;;;;;6.50;3.73;;;;;;;0.16;76.08;100201.38;5049097;28;20221;-66
2021/04/07 03:11:37;;;;;;;10.27;4.20;;;;;;;0.15;76.45;100199.69;5045414;28;20663;-66
2021/04/07 03:14:05;;;;;;;9.97;3.57;;;;;;;0.13;76.33;100197.09;5045081;28;20306;-66
2021/04/07 03:16:31;;;;;;;6.93;3.60;;;;;;;0.11;76.45;100196.28;5051482;28;20201;-66
2021/04/07 03:18:57;;;;;;;7.47;4.00;;;;;;;0.10;76.33;100198.94;5042890;28;20222;-65
2021/04/07 03:21:23;;;;;;;5.73;3.03;;;;;;;0.07;76.41;100201.63;5045821;28;20202;-65
2021/04/07 03:23:50;;;;;;;7.33;3.27;;;;;;;0.06;76.29;100199.91;5050247;28;20220;-65
2021/04/07 03:26:16;;;;;;;6.90;3.43;;;;;;;0.04;76.34;100209.56;5047172;28;20209;-66
2021/04/07 03:28:42;;;;;;;8.20;4.23;;;;;;;0.00;76.51;100209.66;5046586;28;20229;-66
2021/04/07 03:31:08;;;;;;;5.77;3.63;;;;;;;-0.01;76.86;100215.81;5046610;28;20308;-66
2021/04/07 03:33:35;;;;;;;6.30;2.93;;;;;;;-0.03;76.47;100215.00;5046394;28;20237;-66
2021/04/07 03:36:03;;;;;;;8.50;3.47;;;;;;;-0.05;76.65;100213.31;5050866;28;20702;-66
2021/04/07 03:38:29;;;;;;;7.20;3.73;;;;;;;-0.05;76.53;100218.53;5046996;28;20595;-66
2021/04/07 03:40:56;;;;;;;9.27;3.50;;;;;;;-0.06;76.48;100220.31;5050949;28;20217;-65
2021/04/07 03:43:24;;;;;;;6.80;3.50;;;;;;;-0.08;76.52;100222.09;5046730;28;20537;-65
2021/04/07 03:45:51;;;;;;;12.13;4.30;;;;;;;-0.08;76.35;100222.09;5046550;28;20209;-66
2021/04/07 03:48:19;;;;;;;9.47;3.60;;;;;;;-0.09;76.83;100219.50;5048678;28;20221;-65
2021/04/07 03:50:46;;;;;;;7.50;3.77;;;;;;;-0.10;76.60;100223.03;5050241;28;20597;-66
2021/04/07 03:53:13;;;;;;;8.33;3.33;;;;;;;-0.11;76.63;100235.25;5052318;28;20206;-67
2021/04/07 03:55:40;;;;;;;10.03;3.90;;;;;;;-0.12;76.46;100225.69;5048688;28;20204;-67
2021/04/07 03:58:07;;;;;;;5.37;2.40;;;;;;;-0.13;76.75;100228.34;5048458;28;20201;-67
2021/04/07 04:00:34;;;;;;;8.47;2.97;;;;;;;-0.15;76.67;100233.63;5049144;28;20209;-66
2021/04/07 04:03:00;;;;;;;8.07;3.00;;;;;;;-0.15;76.89;100233.63;5049799;28;20205;-66
2021/04/07 04:05:26;;;;;;;7.10;3.23;;;;;;;-0.17;77.09;100240.66;5043811;28;20642;-66
2021/04/07 04:07:52;;;;;;;8.73;2.97;;;;;;;-0.17;76.43;100232.78;5044220;28;20226;-66
2021/04/07 04:10:19;;;;;;;10.13;3.33;;;;;;;-0.16;76.66;100242.38;5047140;28;20600;-67
2021/04/07 04:12:45;;;;;;;7.83;3.60;;;;;;;-0.16;76.81;100234.50;5049395;28;20573;-67
2021/04/07 04:15:13;;;;;;;13.80;3.67;;;;;;;-0.17;76.57;100232.78;5050873;28;20221;-66
2021/04/07 04:17:40;;;;;;;11.33;3.20;;;;;;;-0.17;76.94;100237.16;5046998;28;20197;-67
2021/04/07 04:20:09;;;;;;;7.03;3.57;;;;;;;-0.18;76.57;100240.72;5044638;28;20225;-65
2021/04/07 04:22:36;;;;;;;11.10;4.33;;;;;;;-0.20;76.72;100246.00;5048890;28;20201;-67
2021/04/07 04:25:02;;;;;;;9.87;3.83;;;;;;;-0.21;76.67;100252.13;5044365;28;20258;-67
2021/04/07 04:27:28;;;;;;;9.70;3.07;;;;;;;-0.21;76.56;100254.72;5045598;28;20624;-66
2021/04/07 04:29:54;;;;;;;6.43;3.00;;;;;;;-0.20;76.54;100259.06;5051540;28;20302;-66
2021/04/07 04:32:21;;;;;;;9.27;2.80;;;;;;;-0.20;76.91;100263.44;5042281;28;20206;-67
2021/04/07 04:34:47;;;;;;;7.17;3.10;;;;;;;-0.21;76.83;100256.50;5037522;28;20247;-67
2021/04/07 04:37:13;;;;;;;7.10;3.07;;;;;;;-0.22;77.07;100260.88;5042378;28;20202;-66
2021/04/07 04:39:40;;;;;;;10.97;3.23;;;;;;;-0.22;76.80;100265.25;5049389;28;20233;-67
2021/04/07 04:42:06;;;;;;;11.47;3.13;;;;;;;-0.23;76.70;100259.16;5049589;28;20210;-66
2021/04/07 04:44:32;;;;;;;5.00;2.50;;;;;;;-0.22;76.69;100266.09;5050021;28;20210;-67
2021/04/07 04:46:58;;;;;;;8.07;2.50;;;;;;;-0.23;76.42;100260.91;5050338;28;20663;-66
2021/04/07 04:49:25;;;;;;;8.87;3.20;;;;;;;-0.24;76.81;100267.03;5046013;28;20222;-66
2021/04/07 04:51:51;;;;;;;9.80;3.40;;;;;;;-0.25;76.60;100266.16;5044003;28;20497;-67
2021/04/07 04:54:17;;;;;;;7.03;2.33;;;;;;;-0.25;76.44;100268.78;5048754;28;20209;-67
2021/04/07 04:56:43;;;;;;;12.33;3.23;;;;;;;-0.26;76.60;100267.06;5051874;28;20721;-66
2021/04/07 04:59:09;;;;;;;7.87;2.80;;;;;;;-0.27;76.68;100267.97;5044407;28;20256;-67
2021/04/07 05:01:35;;;;;;;9.53;2.63;;;;;;;-0.27;76.79;100267.97;5041864;28;20211;-66
2021/04/07 05:04:05;;;;;;;7.10;2.50;;;;;;;-0.27;76.70;100267.97;5052732;28;20201;-67
2021/04/07 05:06:33;;;;;;;10.00;2.87;;;;;;;-0.27;76.37;100267.97;5048928;28;20284;-67
2021/04/07 05:08:59;;;;;;;6.87;2.30;;;;;;;-0.25;76.85;100274.03;5045574;28;20825;-67
2021/04/07 05:11:25;;;;;;;7.73;2.60;;;;;;;-0.25;76.57;100276.63;5051582;28;20206;-66
2021/04/07 05:13:51;;;;;;;5.80;2.40;;;;;;;-0.23;76.44;100277.47;5045989;28;20217;-66
2021/04/07 05:16:17;;;;;;;15.37;3.03;;;;;;;-0.21;76.66;100272.19;5051359;28;20210;-67
2021/04/07 05:18:43;;;;;;;9.17;2.67;;;;;;;-0.18;76.36;100283.41;5046452;28;20485;-67
2021/04/07 05:21:09;;;;;;;8.30;2.47;;;;;;;-0.17;76.66;100293.00;5045642;28;20209;-67
2021/04/07 05:23:36;;;;;;;8.80;2.27;;;;;;;-0.13;76.53;100292.03;5046663;28;20228;-66
2021/04/07 05:26:02;;;;;;;4.43;1.77;;;;;;;-0.09;76.50;100298.03;5051193;28;20205;-67
2021/04/07 05:28:28;;;;;;;6.00;2.57;;;;;;;-0.07;76.56;100294.50;5049231;28;20229;-68
2021/04/07 05:31:01;;;;;;;6.23;2.27;;;;;;;-0.03;76.50;100308.38;5047142;28;20216;-69
2021/04/07 05:33:29;;;;;;;8.10;2.30;;;;;;;0.00;76.16;100306.50;5043063;28;20210;-68
2021/04/07 05:35:56;;;;;;;6.63;2.00;;;;;;;0.03;76.39;100308.19;5047646;28;20212;-69
2021/04/07 05:38:23;;;;;;;7.20;2.17;;;;;;;0.08;76.66;100305.47;5048814;28;20275;-67
2021/04/07 05:40:51;;;;;;;6.93;1.97;;;;;;;0.10;76.65;100301.03;5044302;28;20208;-68
2021/04/07 05:43:17;;;;;;;5.13;2.70;;;;;;;0.14;76.22;100307.94;5048212;28;20235;-67
2021/04/07 05:45:43;;;;;;;4.97;1.97;;;;;;;0.17;76.39;100307.84;5047137;28;20210;-66
2021/04/07 05:48:10;;;;;;;5.37;2.03;;;;;;;0.21;76.27;100302.47;5048718;28;20231;-67
2021/04/07 05:50:37;;;;;;;5.87;2.17;;;;;;;0.24;76.30;100297.16;5048943;28;20209;-68
2021/04/07 05:53:04;;;;;;;9.80;3.80;;;;;;;0.28;76.29;100308.41;5046486;28;20201;-67
2021/04/07 05:55:29;;;;;;;9.23;2.10;;;;;;;0.30;76.12;100302.25;5048901;28;20556;-67
2021/04/07 05:57:58;;;;;;;7.17;2.33;;;;;;;0.34;75.99;100308.25;5048183;28;20229;-67
2021/04/07 06:00:25;;;;;;;6.00;2.03;;;;;;;0.35;76.09;100315.22;5047933;28;20225;-69
2021/04/07 06:02:53;;;;;;;6.27;2.00;;;;;;;0.40;76.06;100308.06;5047200;28;20201;-68
2021/04/07 06:05:20;;;;;;;6.10;1.70;;;;;;;0.42;75.71;100306.28;5048434;28;20201;-69
2021/04/07 06:07:46;;;;;;;9.50;2.43;;;;;;;0.45;75.84;100313.19;5047847;28;20248;-68
2021/04/07 06:10:13;;;;;;;3.60;1.30;;;;;;;0.48;75.97;100313.97;5046391;28;20706;-68
2021/04/07 06:12:39;;;;;;;6.70;1.97;;;;;;;0.51;75.52;100305.19;5043253;28;20229;-68
2021/04/07 06:15:08;;;;;;;5.77;2.40;;;;;;;0.53;75.46;100306.84;5046932;28;20213;-68
2021/04/07 06:17:35;;;;;;;9.50;2.40;;;;;;;0.56;75.47;100313.75;5050024;28;20208;-68
2021/04/07 06:20:01;;;;;;;5.43;2.30;;;;;;;0.62;75.35;100313.59;5049134;28;20227;-68
2021/04/07 06:22:27;;;;;;;5.40;2.33;;;;;;;0.66;75.11;100315.22;5046412;28;20202;-68
2021/04/07 06:24:53;;;;;;;4.33;1.87;;;;;;;0.77;75.07;100318.38;5044738;28;20234;-68
2021/04/07 06:27:19;;;;;;;8.87;2.50;;;;;;;0.87;75.15;100319.00;5047025;28;20691;-68
2021/04/07 06:29:45;;;;;;;5.13;1.77;;;;;;;0.95;74.87;100324.88;5048959;28;20278;-68
2021/04/07 06:32:12;;;;;;;4.50;1.80;;;;;;;0.99;74.62;100319.50;5045883;28;20217;-68
2021/04/07 06:34:38;;;;;;;5.77;1.83;;;;;;;1.02;74.26;100310.69;5045664;28;20236;-69
2021/04/07 06:37:04;;;;;;;8.97;2.83;;;;;;;1.06;74.20;100319.31;5048227;28;20209;-69
2021/04/07 06:39:30;;;;;;;8.33;2.00;;;;;;;1.08;74.28;100328.84;5047422;28;20384;-69
2021/04/07 06:41:56;;;;;;;5.83;2.17;;;;;;;1.12;74.11;100324.38;5047731;28;20210;-69
2021/04/07 06:44:23;;;;;;;5.33;2.20;;;;;;;1.15;73.95;100335.63;5039406;28;20586;-68
2021/04/07 06:46:49;;;;;;;4.83;2.03;;;;;;;1.18;74.08;100329.44;5040019;28;20289;-67
2021/04/07 06:49:19;;;;;;;9.73;2.20;;;;;;;1.21;73.70;100342.47;5041913;28;20688;-68
2021/04/07 06:51:45;;;;;;;4.60;2.13;;;;;;;1.23;73.55;100343.28;5048631;28;20264;-68
2021/04/07 06:54:12;;;;;;;6.50;2.47;;;;;;;1.23;73.52;100344.13;5043897;28;20259;-69
2021/04/07 06:56:39;;;;;;;5.07;2.43;;;;;;;1.26;73.38;100343.16;5038696;28;20205;-66
2021/04/07 06:59:05;;;;;;;4.43;1.83;;;;;;;1.26;73.23;100338.78;5047550;28;20513;-68
2021/04/07 07:01:31;;;;;;;4.90;2.00;;;;;;;1.27;73.34;100345.75;5041802;28;20637;-72
2021/04/07 07:03:57;;;;;;;6.13;2.83;;;;;;;1.30;72.91;100340.41;5050217;28;20202;-68
2021/04/07 07:06:24;;;;;;;5.97;2.03;;;;;;;1.35;72.94;100346.38;5048552;28;20296;-68
2021/04/07 07:08:50;;;;;;;3.63;1.97;;;;;;;1.39;72.90;100334.91;5042651;28;20651;-68
2021/04/07 07:11:17;;;;;;;6.73;2.50;;;;;;;1.45;72.49;100330.34;5047521;28;20347;-69
2021/04/07 07:13:44;;;;;;;5.37;2.43;;;;;;;1.49;72.51;100337.22;5048467;28;20201;-71
2021/04/07 07:16:10;;;;;;;6.73;2.20;;;;;;;1.52;72.61;100334.50;5045113;28;20205;-69
2021/04/07 07:18:42;;;;;;;5.40;2.67;;;;;;;1.56;72.34;100338.75;5047623;28;20619;-68
2021/04/07 07:21:14;;;;;;;7.20;2.57;;;;;;;1.61;72.12;100345.56;5047002;28;20210;-69
2021/04/07 07:23:44;;;;;;;4.67;2.43;;;;;;;1.66;72.02;100332.28;5048480;28;20205;-70
2021/04/07 07:26:12;;;;;;;8.13;2.40;;;;;;;1.70;72.20;100345.28;5047707;28;20205;-67
2021/04/07 07:28:43;;;;;;;4.73;2.40;;;;;;;1.76;71.86;100348.63;5047305;28;20232;-69
2021/04/07 07:31:20;;;;;;;5.23;2.47;;;;;;;1.80;71.72;100335.31;5047451;28;20682;-68
2021/04/07 07:33:46;;;;;;;4.50;2.23;;;;;;;1.85;71.94;100343.91;5047190;28;20379;-69
2021/04/07 07:36:13;;;;;;;5.07;2.30;;;;;;;1.91;72.01;100341.09;5047976;28;20506;-67
2021/04/07 07:38:45;;;;;;;3.73;1.97;;;;;;;1.98;71.43;100344.38;5032829;28;20320;-68
2021/04/07 07:41:12;;;;;;;4.47;2.90;;;;;;;2.02;71.44;100346.00;5042142;28;20209;-69
2021/04/07 07:43:41;;;;;;;7.03;3.20;;;;;;;2.07;71.63;100350.19;5047763;28;21284;-68
2021/04/07 07:46:10;;;;;;;6.53;5.20;;;;;;;2.11;71.07;100352.72;5047964;28;20689;-68
2021/04/07 07:48:37;;;;;;;8.57;4.80;;;;;;;2.14;70.96;100345.59;5046804;28;20229;-67
2021/04/07 07:51:12;;;;;;;6.23;2.63;;;;;;;2.20;70.73;100353.25;5037443;28;20236;-67
2021/04/07 07:53:39;;;;;;;7.00;2.37;;;;;;;2.28;71.25;100355.63;5046998;28;20205;-69
2021/04/07 07:56:06;;;;;;;6.17;4.23;;;;;;;2.32;70.84;100354.63;5045384;28;20210;-68
2021/04/07 07:58:32;;;;;;;4.47;2.20;;;;;;;2.37;71.10;100350.91;5052624;28;20279;-67
2021/04/07 08:01:05;;;;;;;7.67;3.90;;;;;;;2.41;70.42;100359.56;5049617;28;20206;-67
2021/04/07 08:03:31;;;;;;;6.27;4.57;;;;;;;2.46;70.79;100359.41;5052518;28;20209;-67
2021/04/07 08:06:00;;;;;;;7.70;2.53;;;;;;;2.56;70.96;100358.16;5052971;28;20201;-68
2021/04/07 08:08:26;;;;;;;3.57;1.97;;;;;;;2.63;70.11;100344.75;5044491;28;20232;-68
2021/04/07 08:10:53;;;;;;;3.83;2.60;;;;;;;2.74;70.69;100353.09;5052881;28;20209;-68
2021/04/07 08:13:20;;;;;;;5.60;2.57;;;;;;;2.90;70.64;100345.50;5045188;28;20267;-67
2021/04/07 08:15:48;;;;;;;6.00;2.47;;;;;;;3.07;70.77;100347.50;5051541;28;20208;-67
2021/04/07 08:18:15;;;;;;;6.77;2.80;;;;;;;3.17;70.03;100351.53;5050504;28;20205;-70
2021/04/07 08:20:41;;;;;;;3.07;2.30;;;;;;;3.25;69.05;100353.84;5051010;28;20577;-67
2021/04/07 08:23:09;;;;;;;4.57;2.87;;;;;;;3.32;69.58;100355.34;5043210;28;20206;-67
2021/04/07 08:25:36;;;;;;;3.67;2.27;;;;;;;3.39;68.47;100365.59;5045355;28;20232;-67
2021/04/07 08:28:04;;;;;;;5.87;2.90;;;;;;;3.43;68.52;100355.78;5050010;28;20228;-66
2021/04/07 08:30:31;;;;;;;8.00;3.00;;;;;;;3.50;68.56;100365.16;5045447;28;20257;-67
2021/04/07 08:32:59;;;;;;;5.67;3.03;;;;;;;3.62;68.46;100364.69;5049796;28;20647;-68
2021/04/07 08:35:26;;;;;;;8.10;2.97;;;;;;;3.71;68.12;100366.97;5042427;28;20205;-67
2021/04/07 08:38:01;;;;;;;7.47;3.90;;;;;;;3.83;67.70;100373.50;5051284;28;20202;-68
2021/04/07 08:40:38;;;;;;;5.57;2.73;;;;;;;3.89;67.80;100365.38;5078941;22;20265;-69
2021/04/07 08:43:05;;;;;;;5.10;3.37;;;;;;;3.84;66.12;100368.19;5070541;28;20209;-70
2021/04/07 08:45:44;;;;;;;4.87;3.30;;;;;;;3.78;66.80;100370.19;5071345;28;20200;-69
2021/04/07 08:48:18;;;;;;;5.47;3.27;;;;;;;3.74;66.71;100373.91;5069965;28;20316;-70
2021/04/07 08:50:45;;;;;;;4.60;3.33;;;;;;;3.73;66.59;100366.91;5051150;28;20659;-69
2021/04/07 08:53:13;;;;;;;5.30;3.77;;;;;;;3.69;66.36;100366.16;5051380;28;20209;-69
2021/04/07 08:55:42;;;;;;;6.97;4.40;;;;;;;3.66;66.08;100374.19;5054675;28;20212;-71
2021/04/07 08:58:10;;;;;;;6.70;4.57;;;;;;;3.63;66.64;100374.31;5049137;28;20197;-71
2021/04/07 09:00:38;;;;;;;6.80;4.80;;;;;;;3.62;66.53;100374.34;5053768;28;20221;-71
2021/04/07 09:03:09;;;;;;;6.90;5.13;;;;;;;3.58;66.21;100388.59;5049859;28;20288;-71
2021/04/07 09:05:37;;;;;;;8.17;5.70;;;;;;;3.59;67.02;100382.38;5051288;28;20721;-73
2021/04/07 09:08:05;;;;;;;7.80;5.10;;;;;;;3.56;66.27;100379.88;5050691;28;20233;-73
2021/04/07 09:10:41;;;;;;;7.13;5.60;;;;;;;3.61;66.82;100385.81;5051588;28;20602;-72
2021/04/07 09:13:08;;;;;;;8.20;6.30;;;;;;;3.64;67.09;100372.53;5051085;28;20218;-71
2021/04/07 09:15:47;;;;;;;9.93;6.93;;;;;;;3.64;66.70;100377.78;5052665;28;20202;-72
2021/04/07 09:18:16;;;;;;;11.27;6.90;;;;;;;3.61;67.42;100370.88;5050877;28;20270;-71
2021/04/07 09:20:44;;;;;;;14.13;7.17;;;;;;;3.60;66.92;100373.56;5048246;28;20244;-72
2021/04/07 09:23:14;;;;;;;9.07;6.67;;;;;;;3.60;67.53;100376.19;5050051;28;20224;-71
2021/04/07 09:25:47;;;;;;;9.33;6.90;;;;;;;3.62;67.74;100377.00;5053218;28;20283;-71
2021/04/07 09:28:13;;;;;;;12.03;7.87;;;;;;;3.62;67.43;100377.84;5051654;28;20271;-72
2021/04/07 09:30:44;;;;;;;11.03;7.97;;;;;;;3.66;67.25;100381.22;5051892;28;20221;-72
2021/04/07 09:33:13;;;;;;;10.17;7.90;;;;;;;3.69;67.23;100375.84;5050573;28;20274;-70
2021/04/07 09:35:50;;;;;;;10.73;8.77;;;;;;;3.71;68.04;100379.28;5053449;28;20209;-70
2021/04/07 09:38:16;;;;;;;11.03;8.40;;;;;;;3.73;67.92;100372.19;5055684;28;20201;-71
2021/04/07 09:40:42;;;;;;;9.97;8.13;;;;;;;3.79;68.20;100369.28;5069629;28;20229;-71
2021/04/07 09:43:10;;;;;;;9.43;7.60;;;;;;;3.80;67.63;100369.22;5073941;28;20573;-70
2021/04/07 09:45:36;;;;;;;9.90;8.13;;;;;;;3.81;67.32;100380.63;5070716;28;20404;-70
2021/04/07 09:48:03;;;;;;;11.47;9.13;;;;;;;3.79;67.47;100380.69;5072921;28;20311;-71
2021/04/07 09:50:30;;;;;;;9.83;7.90;;;;;;;3.81;67.60;100386.75;5070933;28;20316;-71
2021/04/07 09:52:56;;;;;;;10.07;8.90;;;;;;;3.79;67.20;100377.19;5067984;28;20201;-70
2021/04/07 09:55:23;;;;;;;11.70;8.13;;;;;;;3.79;67.81;100379.81;5072233;28;20383;-70
2021/04/07 09:57:57;;;;;;;11.30;9.03;;;;;;;3.80;68.14;100387.66;5070906;28;20216;-72
2021/04/07 10:00:28;;;;;;;9.20;7.73;;;;;;;3.80;67.61;100382.38;5073327;28;20595;-71
2021/04/07 10:02:55;;;;;;;11.77;8.07;;;;;;;3.79;68.18;100385.94;5069545;28;20205;-70
2021/04/07 10:05:29;;;;;;;9.83;7.87;;;;;;;3.77;67.54;100385.13;5069218;28;20215;-72
2021/04/07 10:08:12;;;;;;;9.53;7.90;;;;;;;3.73;67.79;100380.94;5067382;28;20225;-70
2021/04/07 10:10:38;;;;;;;9.93;8.30;;;;;;;3.73;68.03;100388.84;5069666;28;20767;-70
2021/04/07 10:13:04;;;;;;;11.57;7.80;;;;;;;3.72;67.90;100383.63;5072201;28;20215;-71
2021/04/07 10:15:30;;;;;;;12.13;8.90;;;;;;;3.73;67.61;100377.44;5069964;28;20598;-72
2021/04/07 10:17:56;;;;;;;10.07;7.63;;;;;;;3.72;67.93;100387.13;5070352;28;20236;-71
2021/04/07 10:20:28;;;;;;;11.63;9.47;;;;;;;3.75;67.41;100392.28;5071338;28;20239;-71
2021/04/07 10:22:56;;;;;;;10.43;8.53;;;;;;;3.78;67.60;100394.75;5070857;28;20201;-71
2021/04/07 10:25:26;;;;;;;9.80;7.60;;;;;;;3.78;67.48;100392.13;5071517;28;20197;-71
2021/04/07 10:30:41;;;;;;;9.17;7.63;;;;;;;3.80;67.54;100392.06;5069046;28;20236;-70
2021/04/07 10:33:08;;;;;;;9.90;7.10;;;;;;;3.82;67.53;100396.34;5067855;28;20234;-71
2021/04/07 10:35:38;;;;;;;11.43;7.47;;;;;;;3.88;67.20;100386.50;5068594;28;20211;-71
2021/04/07 10:38:09;;;;;;;9.97;7.43;;;;;;;3.90;67.71;100396.06;5069497;28;20227;-71
2021/04/07 10:40:37;;;;;;;11.90;8.30;;;;;;;3.92;66.94;100396.88;5068907;28;20315;-71
2021/04/07 10:43:11;;;;;;;9.53;7.13;;;;;;;3.92;66.53;100396.88;5070226;28;20207;-71
2021/04/07 10:45:38;;;;;;;11.00;9.50;;;;;;;3.93;67.04;100395.94;5069749;28;20204;-71
2021/04/07 10:48:05;;;;;;;12.13;10.23;;;;;;;3.94;66.62;100392.38;5070347;28;20216;-71
2021/04/07 10:50:32;;;;;;;17.47;15.80;;;;;;;3.96;66.99;100390.53;5069821;28;20221;-71
2021/04/07 10:52:58;;;;;;;11.53;9.87;;;;;;;4.01;66.90;100398.25;5065074;28;20209;-71
2021/04/07 10:55:26;;;;;;;12.67;9.97;;;;;;;4.04;67.06;100400.78;5064943;28;20228;-70
2021/04/07 10:57:54;;;;;;;13.03;10.47;;;;;;;4.08;66.46;100394.47;5067856;28;20197;-71
2021/04/07 11:00:27;;;;;;;10.77;9.67;;;;;;;4.14;67.30;100400.31;5069994;28;20718;-70
2021/04/07 11:02:53;;;;;;;10.50;9.00;;;;;;;4.19;67.01;100397.50;5067827;28;20731;-71
2021/04/07 11:05:21;;;;;;;13.60;12.20;;;;;;;4.23;67.46;100392.97;5066938;28;20585;-71
2021/04/07 11:07:48;;;;;;;12.97;11.57;;;;;;;4.27;66.95;100395.44;5069505;28;20209;-71
2021/04/07 11:10:15;;;;;;;16.20;14.60;;;;;;;4.33;66.82;100400.44;5070995;28;20316;-71
2021/04/07 11:12:42;;;;;;;15.70;12.43;;;;;;;4.37;67.04;100403.81;5069194;28;20692;-71
2021/04/07 11:15:13;;;;;;;10.80;9.60;;;;;;;4.40;67.40;100401.91;5064118;28;20216;-70
2021/04/07 11:17:49;;;;;;;12.27;10.47;;;;;;;4.45;66.70;100396.44;5068377;28;20688;-71
2021/04/07 11:20:15;;;;;;;13.50;10.50;;;;;;;4.46;66.82;100409.56;5068644;28;20718;-71
2021/04/07 11:22:41;;;;;;;10.43;9.00;;;;;;;4.48;66.41;100410.31;5068455;28;20212;-71
2021/04/07 11:25:08;;;;;;;13.10;11.10;;;;;;;4.50;66.88;100402.34;5069256;28;20208;-71
2021/04/07 11:27:35;;;;;;;13.57;11.43;;;;;;;4.50;66.73;100412.91;5069442;28;20212;-71
2021/04/07 11:30:01;;;;;;;14.50;12.47;;;;;;;4.50;66.87;100418.19;5063746;28;20324;-72
2021/04/07 11:32:30;;;;;;;11.00;9.67;;;;;;;4.48;66.79;100412.97;5068547;28;20228;-70